Time;durP1;ratioP1;P1;durP2;ratioP2;P2;SDS_P1;SDS_P2;PMS_P1;PMS_P2;Temp;Humidity;BMP_temperature;BMP_pressure;BME280_temperature;BME280_humidity;BME280_pressure;Samples;Min_cycle;Max_cycle;Signal;HPM_P1;HPM_P2
2023/12/16 00:01:26;;;;;;;16.58;10.82;;;5.40;1.00;;;;;;4939321;29;20074;-82
2023/12/16 00:03:54;;;;;;;16.70;10.52;;;5.20;1.00;;;;;;4952842;29;20110;-82
2023/12/16 00:06:22;;;;;;;17.48;11.90;;;5.10;99.90;;;;;;4946907;29;20055;-81
2023/12/16 00:08:50;;;;;;;14.95;10.10;;;5.20;1.00;;;;;;4949706;29;20043;-83
2023/12/16 00:11:19;;;;;;;16.63;11.55;;;5.20;1.00;;;;;;4968915;29;20074;-84
2023/12/16 00:13:46;;;;;;;17.10;10.90;;;5.40;1.00;;;;;;4970578;29;20071;-81
2023/12/16 00:16:14;;;;;;;18.40;11.40;;;5.50;1.00;;;;;;4974543;29;20038;-82
2023/12/16 00:18:41;;;;;;;16.42;10.15;;;5.30;99.90;;;;;;4957130;29;20051;-82
2023/12/16 00:21:12;;;;;;;17.40;11.02;;;5.20;99.90;;;;;;4957652;29;20035;-81
2023/12/16 00:23:40;;;;;;;16.60;10.70;;;5.20;99.90;;;;;;4955779;29;20106;-81
2023/12/16 00:26:07;;;;;;;16.20;9.77;;;5.10;1.00;;;;;;4969376;29;20035;-82
2023/12/16 00:28:36;;;;;;;16.67;11.00;;;5.20;99.90;;;;;;4954542;29;20070;-82
2023/12/16 00:31:04;;;;;;;18.73;12.02;;;5.10;1.00;;;;;;4946397;29;20047;-82
2023/12/16 00:33:32;;;;;;;16.98;12.02;;;5.10;99.90;;;;;;4965440;29;20039;-81
2023/12/16 00:35:59;;;;;;;15.68;12.05;;;5.20;99.90;;;;;;4959477;29;20059;-81
2023/12/16 00:38:27;;;;;;;16.60;12.10;;;5.20;99.90;;;;;;4956523;29;20047;-83
2023/12/16 00:40:55;;;;;;;16.23;12.00;;;5.30;1.00;;;;;;4940105;29;20047;-81
2023/12/16 00:43:23;;;;;;;13.73;9.70;;;5.20;99.90;;;;;;4939999;29;20074;-82
2023/12/16 00:45:52;;;;;;;13.50;9.77;;;4.80;1.00;;;;;;4939901;29;20090;-81
2023/12/16 00:48:19;;;;;;;13.27;8.85;;;4.70;1.00;;;;;;4938977;29;20488;-82
2023/12/16 00:50:47;;;;;;;13.93;9.27;;;4.50;1.00;;;;;;4938484;29;20102;-81
2023/12/16 00:53:14;;;;;;;12.80;8.68;;;4.50;1.00;;;;;;4947964;29;20047;-82
2023/12/16 00:55:42;;;;;;;14.02;10.05;;;4.30;99.90;;;;;;4938315;29;20118;-81
2023/12/16 00:58:10;;;;;;;14.07;9.30;;;4.30;99.90;;;;;;4955360;29;20047;-81
2023/12/16 01:00:38;;;;;;;11.18;7.72;;;4.30;1.00;;;;;;4938524;29;20051;-82
2023/12/16 01:03:07;;;;;;;11.93;8.52;;;4.20;1.00;;;;;;4956789;29;20039;-81
2023/12/16 01:05:34;;;;;;;11.13;7.50;;;4.20;1.00;;;;;;4946642;29;20051;-81
2023/12/16 01:08:02;;;;;;;9.32;5.78;;;4.10;1.00;;;;;;4938715;29;20613;-83
2023/12/16 01:10:30;;;;;;;13.85;8.82;;;4.30;1.00;;;;;;4940183;29;20387;-81
2023/12/16 01:12:58;;;;;;;13.25;9.02;;;4.40;1.00;;;;;;4939276;29;20051;-82
2023/12/16 01:15:25;;;;;;;10.85;7.57;;;4.50;1.00;;;;;;4938775;29;20055;-81
2023/12/16 01:17:53;;;;;;;11.38;8.27;;;4.50;1.00;;;;;;4942428;29;20570;-83
2023/12/16 01:20:22;;;;;;;13.80;9.27;;;4.20;1.00;;;;;;4958057;29;20047;-81
2023/12/16 01:22:50;;;;;;;13.18;9.00;;;4.10;99.90;;;;;;4956412;29;20062;-82
2023/12/16 01:25:18;;;;;;;16.65;10.55;;;4.10;99.90;;;;;;4938767;29;20067;-81
2023/12/16 01:27:45;;;;;;;12.90;8.80;;;4.00;99.90;;;;;;4956537;29;20605;-81
2023/12/16 01:30:13;;;;;;;14.57;9.52;;;3.90;99.90;;;;;;4947979;28;20070;-83
2023/12/16 01:32:41;;;;;;;12.05;8.98;;;3.80;99.90;;;;;;4969853;28;20051;-81
2023/12/16 01:35:09;;;;;;;13.25;8.82;;;3.70;1.00;;;;;;4979617;28;20016;-80
2023/12/16 01:37:38;;;;;;;14.50;9.52;;;3.60;1.00;;;;;;4979195;28;20118;-81
2023/12/16 01:40:07;;;;;;;13.45;9.77;;;3.50;1.00;;;;;;4954310;29;20058;-81
2023/12/16 01:42:42;;;;;;;12.50;8.85;;;3.50;1.00;;;;;;4949711;29;20051;-81
2023/12/16 01:45:10;;;;;;;13.43;9.15;;;3.40;1.00;;;;;;4942326;29;20047;-81
2023/12/16 01:47:38;;;;;;;12.93;9.52;;;3.40;73.00;;;;;;4940377;29;20040;-80
2023/12/16 01:50:07;;;;;;;13.55;9.23;;;3.40;13.00;;;;;;4942222;29;20134;-82
2023/12/16 01:52:35;;;;;;;14.38;9.30;;;3.50;76.00;;;;;;4939845;29;20071;-82
2023/12/16 01:55:05;;;;;;;12.88;9.10;;;3.40;1.00;;;;;;4935974;29;20051;-82
2023/12/16 01:57:33;;;;;;;12.82;9.30;;;3.30;99.90;;;;;;4938487;29;20085;-83
2023/12/16 02:00:03;;;;;;;11.07;7.93;;;3.30;1.00;;;;;;4944965;29;20050;-83
2023/12/16 02:02:41;;;;;;;13.55;8.95;;;3.30;1.00;;;;;;4954532;29;20052;-81
2023/12/16 02:05:09;;;;;;;13.02;8.65;;;3.30;1.00;;;;;;4939334;29;20126;-81
2023/12/16 02:07:36;;;;;;;12.15;7.93;;;3.10;1.00;;;;;;4936101;29;20341;-82
2023/12/16 02:10:06;;;;;;;10.88;7.82;;;3.10;1.00;;;;;;4937568;29;20491;-81
2023/12/16 02:12:34;;;;;;;11.85;8.15;;;3.10;1.00;;;;;;4955837;29;20047;-81
2023/12/16 02:15:01;;;;;;;13.55;8.95;;;3.10;1.00;;;;;;4932529;29;20052;-81
2023/12/16 02:17:29;;;;;;;12.25;8.63;;;3.10;1.00;;;;;;4946907;28;20047;-82
2023/12/16 02:19:56;;;;;;;14.70;9.30;;;3.10;1.00;;;;;;4960139;29;20043;-81
2023/12/16 02:22:24;;;;;;;13.40;9.23;;;3.10;57.10;;;;;;4964033;29;20051;-82
2023/12/16 02:24:54;;;;;;;12.43;8.65;;;3.10;97.00;;;;;;4958925;29;20063;-82
2023/12/16 02:27:23;;;;;;;12.65;8.50;;;3.10;1.00;;;;;;4963358;29;20043;-84
2023/12/16 02:29:50;;;;;;;14.75;9.07;;;3.00;1.00;;;;;;4934474;29;20160;-82
2023/12/16 02:32:18;;;;;;;13.15;8.95;;;3.10;83.80;;;;;;4926900;29;20491;-82
2023/12/16 02:34:45;;;;;;;13.32;9.98;;;3.10;99.90;;;;;;4944808;29;20039;-81
2023/12/16 02:37:13;;;;;;;16.17;10.55;;;3.10;1.00;;;;;;4945258;29;20047;-81
2023/12/16 02:39:40;;;;;;;16.25;10.75;;;3.10;1.00;;;;;;4925867;29;20040;-82
2023/12/16 02:42:09;;;;;;;18.23;12.88;;;3.10;1.00;;;;;;4945546;29;20039;-82
2023/12/16 02:44:37;;;;;;;16.10;11.70;;;3.20;99.90;;;;;;4944514;29;20522;-82
2023/12/16 02:47:07;;;;;;;14.10;9.93;;;3.20;99.90;;;;;;4948183;29;20126;-81
2023/12/16 02:49:35;;;;;;;13.60;9.95;;;3.20;99.90;;;;;;4932888;29;20115;-81
2023/12/16 02:52:03;;;;;;;14.88;9.38;;;3.30;99.90;;;;;;4945048;29;20079;-82
2023/12/16 02:54:32;;;;;;;13.52;9.10;;;3.30;99.90;;;;;;4927683;29;20082;-80
2023/12/16 02:56:59;;;;;;;14.52;9.68;;;3.40;99.90;;;;;;4944446;29;20083;-83
2023/12/16 02:59:28;;;;;;;14.50;10.07;;;3.40;99.90;;;;;;4929506;29;20103;-83
2023/12/16 03:01:56;;;;;;;16.90;10.43;;;3.50;1.00;;;;;;4947316;29;20040;-82
2023/12/16 03:04:23;;;;;;;17.95;11.77;;;3.60;1.00;;;;;;4928589;29;20123;-80
2023/12/16 03:06:51;;;;;;;17.55;12.10;;;3.60;99.90;;;;;;4945262;29;20046;-82
2023/12/16 03:09:18;;;;;;;14.38;10.18;;;3.60;1.00;;;;;;4946415;29;20518;-81
2023/12/16 03:11:45;;;;;;;14.48;9.60;;;3.60;99.90;;;;;;4928116;29;20082;-82
2023/12/16 03:14:13;;;;;;;18.58;12.38;;;3.60;1.00;;;;;;4945668;29;20066;-81
2023/12/16 03:16:42;;;;;;;17.80;11.80;;;3.70;99.90;;;;;;4926315;29;20060;-83
2023/12/16 03:19:09;;;;;;;18.58;11.48;;;3.70;1.00;;;;;;4927625;29;20044;-81
2023/12/16 03:21:37;;;;;;;17.08;11.95;;;3.70;82.90;;;;;;4935735;29;20103;-81
2023/12/16 03:24:05;;;;;;;15.73;10.52;;;3.70;99.90;;;;;;4928668;29;20043;-81
2023/12/16 03:26:33;;;;;;;14.82;10.18;;;3.50;99.90;;;;;;4931014;29;20047;-82
2023/12/16 03:29:00;;;;;;;14.15;10.73;;;3.70;99.90;;;;;;4927945;29;20043;-82
2023/12/16 03:31:28;;;;;;;14.73;10.52;;;3.70;99.90;;;;;;4984761;23;20076;-80
2023/12/16 03:33:57;;;;;;;15.98;11.25;;;3.90;38.40;;;;;;4997059;28;20062;-78
2023/12/16 03:36:24;;;;;;;14.80;9.77;;;3.90;1.00;;;;;;5000328;28;20046;-80
2023/12/16 03:38:53;;;;;;;16.02;10.70;;;3.70;1.00;;;;;;4999286;28;20054;-80
2023/12/16 03:41:21;;;;;;;15.95;11.13;;;3.60;1.00;;;;;;5000643;28;20038;-80
2023/12/16 03:43:48;;;;;;;15.02;9.40;;;3.70;1.00;;;;;;4998447;28;20510;-79
2023/12/16 03:46:17;;;;;;;14.73;9.88;;;3.50;1.00;;;;;;4983266;28;20050;-78
2023/12/16 03:48:44;;;;;;;13.20;9.82;;;3.50;1.00;;;;;;5000818;28;20046;-82
2023/12/16 03:51:13;;;;;;;13.63;9.57;;;3.40;1.00;;;;;;5000966;28;20125;-80
2023/12/16 03:53:41;;;;;;;14.20;10.18;;;3.30;1.00;;;;;;4996298;28;20042;-79
2023/12/16 03:56:09;;;;;;;13.73;9.43;;;3.30;1.00;;;;;;4998767;28;20520;-79
2023/12/16 03:58:37;;;;;;;13.50;9.30;;;3.30;1.00;;;;;;4981579;28;20047;-79
2023/12/16 04:01:08;;;;;;;14.90;9.73;;;3.30;1.00;;;;;;5000802;28;20049;-80
2023/12/16 04:03:36;;;;;;;13.60;9.73;;;3.20;1.00;;;;;;4999455;28;20034;-79
2023/12/16 04:06:04;;;;;;;14.15;9.20;;;3.10;1.00;;;;;;4999130;28;20076;-79
2023/12/16 04:08:33;;;;;;;16.02;10.27;;;3.10;1.00;;;;;;4998955;28;20042;-77
2023/12/16 04:11:01;;;;;;;15.13;10.43;;;3.00;1.00;;;;;;4982347;28;20046;-77
2023/12/16 04:13:29;;;;;;;13.35;9.48;;;3.10;1.00;;;;;;5000619;28;20046;-80
2023/12/16 04:15:56;;;;;;;14.98;9.93;;;3.30;1.00;;;;;;5014664;28;20130;-79
2023/12/16 04:18:24;;;;;;;13.27;8.45;;;3.40;1.00;;;;;;5018573;28;20047;-79
2023/12/16 04:20:51;;;;;;;11.65;8.57;;;3.50;1.00;;;;;;5021889;28;20060;-79
2023/12/16 04:23:19;;;;;;;12.50;9.30;;;3.60;99.90;;;;;;5010581;28;20145;-79
2023/12/16 04:25:48;;;;;;;12.63;9.02;;;3.60;99.90;;;;;;5001604;28;20553;-78
2023/12/16 04:28:16;;;;;;;13.02;9.38;;;3.70;99.90;;;;;;4999276;28;20544;-76
2023/12/16 04:30:44;;;;;;;10.75;7.80;;;3.70;70.00;;;;;;4981161;28;20054;-78
2023/12/16 04:33:11;;;;;;;11.60;8.77;;;3.70;1.00;;;;;;5000191;28;20101;-79
2023/12/16 04:35:39;;;;;;;11.07;8.13;;;3.70;1.00;;;;;;4998583;28;20068;-79
2023/12/16 04:38:06;;;;;;;13.02;8.55;;;3.70;1.00;;;;;;4981079;28;20100;-79
2023/12/16 04:40:34;;;;;;;11.00;7.88;;;3.60;1.00;;;;;;4983459;28;20144;-80
2023/12/16 04:43:03;;;;;;;11.15;7.75;;;3.60;1.00;;;;;;4997381;28;20137;-79
2023/12/16 04:45:30;;;;;;;12.75;7.93;;;3.60;1.00;;;;;;4998711;28;20046;-79
2023/12/16 04:47:58;;;;;;;12.23;8.13;;;3.60;1.00;;;;;;5001419;28;20061;-79
2023/12/16 04:50:25;;;;;;;12.20;8.65;;;3.70;1.00;;;;;;4983052;28;20103;-79
2023/12/16 04:52:53;;;;;;;14.48;9.23;;;3.80;1.00;;;;;;4994809;28;20039;-80
2023/12/16 04:55:20;;;;;;;11.15;8.13;;;3.80;1.00;;;;;;5000068;28;20089;-78
2023/12/16 04:57:48;;;;;;;12.70;8.02;;;3.90;1.00;;;;;;4999752;28;20077;-80
2023/12/16 05:00:17;;;;;;;12.98;8.48;;;3.80;1.00;;;;;;4982000;28;20513;-80
2023/12/16 05:02:45;;;;;;;13.20;9.50;;;3.90;1.00;;;;;;5001252;28;20126;-80
2023/12/16 05:05:12;;;;;;;17.52;10.32;;;3.80;1.00;;;;;;4998445;28;20073;-78
2023/12/16 05:07:41;;;;;;;16.92;11.57;;;3.90;1.00;;;;;;4984880;28;20494;-79
2023/12/16 05:10:10;;;;;;;16.67;11.52;;;3.80;1.00;;;;;;5000027;28;20042;-79
2023/12/16 05:12:40;;;;;;;17.00;11.55;;;3.80;1.00;;;;;;5001344;28;20066;-78
2023/12/16 05:15:08;;;;;;;18.35;12.50;;;3.70;1.00;;;;;;4999706;28;20109;-78
2023/12/16 05:17:37;;;;;;;18.58;13.23;;;3.70;1.00;;;;;;4999772;28;20052;-78
2023/12/16 05:20:06;;;;;;;17.25;12.55;;;3.70;99.90;;;;;;5000525;28;20127;-79
2023/12/16 05:22:34;;;;;;;19.30;12.60;;;3.70;99.90;;;;;;5002483;28;20057;-78
2023/12/16 05:25:02;;;;;;;18.05;12.40;;;3.70;99.90;;;;;;5003176;28;20038;-78
2023/12/16 05:27:31;;;;;;;18.58;12.40;;;3.60;99.90;;;;;;4984860;28;20049;-79
2023/12/16 05:30:01;;;;;;;19.55;12.63;;;3.60;1.00;;;;;;5003206;28;20557;-77
2023/12/16 05:32:29;;;;;;;21.23;16.15;;;3.60;1.00;;;;;;5001147;28;20050;-78
2023/12/16 05:34:58;;;;;;;19.98;13.05;;;3.60;1.00;;;;;;5000858;28;20038;-79
2023/12/16 05:37:25;;;;;;;22.00;13.98;;;3.50;4.00;;;;;;5003140;28;20038;-77
2023/12/16 05:39:53;;;;;;;22.98;15.73;;;3.40;99.90;;;;;;5003691;28;20136;-78
2023/12/16 05:42:20;;;;;;;24.08;16.20;;;3.40;99.90;;;;;;5004430;28;20034;-80
2023/12/16 05:44:48;;;;;;;21.17;14.77;;;3.20;99.90;;;;;;5006909;28;20043;-79
2023/12/16 05:47:16;;;;;;;21.77;15.15;;;3.20;1.00;;;;;;4986305;28;20046;-80
2023/12/16 05:49:44;;;;;;;90.03;27.48;;;3.10;99.90;;;;;;5002569;28;20506;-81
2023/12/16 05:52:13;;;;;;;47.10;21.15;;;3.00;99.90;;;;;;5002493;28;20038;-80
2023/12/16 05:54:41;;;;;;;42.13;26.75;;;2.90;1.00;;;;;;5002298;28;20524;-79
2023/12/16 05:57:09;;;;;;;44.05;29.67;;;2.80;90.30;;;;;;5001535;28;20494;-79
2023/12/16 05:59:37;;;;;;;34.45;23.23;;;2.80;99.90;;;;;;5002126;28;20381;-78
2023/12/16 06:02:05;;;;;;;35.38;23.65;;;2.90;99.90;;;;;;5003307;28;20439;-81
2023/12/16 06:04:32;;;;;;;34.92;23.85;;;2.60;1.00;;;;;;5002220;28;20594;-78
2023/12/16 06:07:00;;;;;;;39.00;25.15;;;2.50;99.90;;;;;;4984525;28;20139;-80
2023/12/16 06:09:29;;;;;;;38.83;25.08;;;2.40;1.00;;;;;;5002781;28;20150;-78
2023/12/16 06:11:56;;;;;;;29.20;19.63;;;2.40;1.00;;;;;;5002937;28;20119;-79
2023/12/16 06:14:24;;;;;;;34.03;21.00;;;2.40;1.00;;;;;;5002389;28;20047;-81
2023/12/16 06:16:51;;;;;;;29.15;19.17;;;2.40;1.00;;;;;;5001975;28;20041;-80
2023/12/16 06:19:19;;;;;;;31.08;21.05;;;2.30;1.00;;;;;;5002314;28;20042;-78
2023/12/16 06:21:46;;;;;;;30.63;20.20;;;2.30;1.00;;;;;;5013147;28;20503;-79
2023/12/16 06:24:15;;;;;;;31.45;20.63;;;2.30;99.90;;;;;;5009098;28;20052;-78
2023/12/16 06:26:45;;;;;;;32.63;22.42;;;2.30;99.90;;;;;;5010163;28;20073;-80
2023/12/16 06:29:13;;;;;;;51.58;33.40;;;2.30;99.90;;;;;;5006761;28;20464;-78
2023/12/16 06:31:40;;;;;;;46.22;30.13;;;2.40;1.00;;;;;;5002897;28;20054;-78
2023/12/16 06:34:08;;;;;;;56.47;33.88;;;2.40;1.00;;;;;;5004021;28;20129;-77
2023/12/16 06:36:35;;;;;;;62.92;40.40;;;2.30;1.00;;;;;;5001937;28;20038;-79
2023/12/16 06:39:03;;;;;;;60.15;40.67;;;2.30;1.00;;;;;;5001124;28;20715;-79
2023/12/16 06:41:31;;;;;;;68.07;44.40;;;2.20;1.00;;;;;;4984772;28;20458;-80
2023/12/16 06:44:00;;;;;;;79.60;48.70;;;2.10;99.90;;;;;;5002217;28;20076;-80
2023/12/16 06:46:27;;;;;;;70.25;45.63;;;2.10;1.00;;;;;;5002385;28;20057;-78
2023/12/16 06:48:55;;;;;;;84.30;52.10;;;2.10;99.90;;;;;;5002335;28;20049;-78
2023/12/16 06:51:22;;;;;;;83.15;50.28;;;2.10;99.90;;;;;;5002671;28;20037;-78
2023/12/16 06:53:50;;;;;;;75.00;44.65;;;2.20;99.90;;;;;;5002214;28;20489;-78
2023/12/16 06:56:17;;;;;;;52.50;34.13;;;2.20;99.90;;;;;;5002479;28;20129;-79
2023/12/16 06:58:47;;;;;;;57.58;36.83;;;2.30;1.00;;;;;;5000857;28;20038;-78
2023/12/16 07:01:16;;;;;;;58.03;36.88;;;2.30;99.90;;;;;;4984065;28;20038;-77
2023/12/16 07:03:44;;;;;;;60.78;37.58;;;2.20;99.90;;;;;;5004311;28;20445;-79
2023/12/16 07:06:11;;;;;;;54.25;34.83;;;2.20;99.90;;;;;;4982651;28;20042;-77
2023/12/16 07:08:40;;;;;;;46.20;31.13;;;2.20;97.80;;;;;;5002839;28;20057;-79
2023/12/16 07:11:08;;;;;;;37.60;24.85;;;2.20;99.90;;;;;;5003200;28;20117;-80
2023/12/16 07:13:35;;;;;;;47.25;27.98;;;2.10;1.00;;;;;;5001580;28;20129;-81
2023/12/16 07:16:05;;;;;;;45.70;28.35;;;2.10;1.00;;;;;;4990149;28;20077;-78
2023/12/16 07:18:34;;;;;;;44.88;30.83;;;2.20;99.90;;;;;;5015809;28;20077;-80
2023/12/16 07:21:05;;;;;;;49.47;32.00;;;2.30;99.90;;;;;;5014986;28;20592;-79
2023/12/16 07:23:33;;;;;;;54.22;32.67;;;2.40;1.00;;;;;;5014293;28;20421;-80
2023/12/16 07:26:01;;;;;;;49.20;32.20;;;2.40;1.00;;;;;;4997286;28;20106;-78
2023/12/16 07:28:28;;;;;;;57.28;39.13;;;2.60;1.00;;;;;;5004436;28;20066;-78
2023/12/16 07:30:57;;;;;;;69.18;46.08;;;2.60;1.00;;;;;;5000135;28;20050;-78
2023/12/16 07:33:24;;;;;;;74.40;47.95;;;2.70;1.00;;;;;;4999561;28;20046;-77
2023/12/16 07:35:53;;;;;;;61.90;40.60;;;2.70;1.00;;;;;;4984093;28;20050;-78
2023/12/16 07:38:21;;;;;;;62.70;42.47;;;2.70;1.00;;;;;;5000294;28;20129;-78
2023/12/16 07:40:48;;;;;;;66.65;45.13;;;2.80;1.00;;;;;;5000079;28;20116;-79
2023/12/16 07:43:16;;;;;;;62.10;41.83;;;3.00;1.00;;;;;;5000393;28;20568;-80
2023/12/16 07:45:44;;;;;;;60.15;40.90;;;3.10;99.90;;;;;;4999595;28;20096;-78
2023/12/16 07:48:11;;;;;;;55.65;36.30;;;3.10;1.00;;;;;;4984016;28;20065;-78
2023/12/16 07:50:39;;;;;;;53.35;35.78;;;3.10;99.90;;;;;;4999761;28;20042;-82
2023/12/16 07:53:08;;;;;;;54.88;37.30;;;3.00;99.90;;;;;;4997942;28;20085;-79
2023/12/16 07:55:35;;;;;;;55.15;37.33;;;2.90;99.90;;;;;;5010860;28;20105;-79
2023/12/16 07:58:03;;;;;;;58.15;37.88;;;3.00;1.00;;;;;;5023319;28;20065;-79
2023/12/16 08:00:30;;;;;;;60.85;38.47;;;3.10;1.00;;;;;;5007985;28;20549;-79
2023/12/16 08:02:58;;;;;;;60.58;40.42;;;3.10;1.00;;;;;;4982421;28;20493;-79
2023/12/16 08:05:26;;;;;;;64.75;44.10;;;3.30;1.00;;;;;;4999553;28;20181;-77
2023/12/16 08:07:53;;;;;;;64.88;44.30;;;3.50;99.90;;;;;;4999627;28;20038;-77
2023/12/16 08:10:22;;;;;;;60.92;41.53;;;3.60;1.00;;;;;;5003544;28;20073;-80
2023/12/16 08:12:51;;;;;;;66.25;42.65;;;3.80;1.00;;;;;;4989114;28;20049;-79
2023/12/16 08:15:19;;;;;;;46.80;31.27;;;3.90;1.00;;;;;;4997441;28;20050;-79
2023/12/16 08:17:47;;;;;;;46.30;31.20;;;4.00;90.00;;;;;;4981340;28;20047;-78
2023/12/16 08:20:14;;;;;;;54.03;31.38;;;4.10;1.00;;;;;;4999871;28;20052;-79
2023/12/16 08:22:42;;;;;;;48.45;30.98;;;4.20;1.00;;;;;;5001695;28;20104;-80
2023/12/16 08:25:10;;;;;;;51.53;30.45;;;4.30;99.90;;;;;;5000620;28;20041;-78
2023/12/16 08:27:39;;;;;;;58.00;34.60;;;4.40;30.30;;;;;;5000567;28;20049;-78
2023/12/16 08:30:08;;;;;;;65.15;38.22;;;4.50;1.00;;;;;;4999516;28;20085;-79
2023/12/16 08:32:35;;;;;;;70.60;41.72;;;4.60;1.00;;;;;;4999857;28;20469;-80
2023/12/16 08:35:03;;;;;;;75.00;44.60;;;4.70;1.00;;;;;;5000580;28;20085;-79
2023/12/16 08:37:31;;;;;;;71.43;44.40;;;4.90;1.00;;;;;;4999554;28;20074;-81
2023/12/16 08:39:59;;;;;;;67.85;43.47;;;4.90;1.00;;;;;;4966327;28;20056;-80
2023/12/16 08:42:26;;;;;;;71.28;45.88;;;5.20;99.90;;;;;;4999034;28;20093;-81
2023/12/16 08:44:55;;;;;;;68.50;43.45;;;5.40;99.90;;;;;;4996712;28;20490;-78
2023/12/16 08:47:23;;;;;;;65.30;39.95;;;5.60;99.90;;;;;;4998242;28;20502;-80
2023/12/16 08:49:51;;;;;;;77.82;46.00;;;5.80;1.00;;;;;;5000427;28;20104;-80
2023/12/16 08:52:19;;;;;;;60.22;37.58;;;5.70;99.90;;;;;;5000561;28;20041;-79
2023/12/16 08:54:46;;;;;;;76.78;44.70;;;5.70;99.90;;;;;;4984575;28;20054;-79
2023/12/16 08:57:14;;;;;;;101.82;60.60;;;5.60;99.90;;;;;;5006325;28;20104;-81
2023/12/16 08:59:42;;;;;;;96.75;55.53;;;5.40;99.90;;;;;;5007296;28;20038;-76
2023/12/16 09:02:11;;;;;;;90.15;53.95;;;5.30;99.90;;;;;;5004768;28;20104;-77
2023/12/16 09:04:39;;;;;;;97.18;57.58;;;5.10;1.00;;;;;;4988104;28;20464;-77
2023/12/16 09:07:06;;;;;;;81.60;48.05;;;5.00;1.00;;;;;;5003554;28;20039;-77
2023/12/16 09:09:34;;;;;;;48.63;29.77;;;5.00;1.00;;;;;;5002402;28;20049;-76
2023/12/16 09:12:01;;;;;;;39.55;25.42;;;4.90;1.00;;;;;;5005350;28;20038;-78
2023/12/16 09:14:29;;;;;;;42.55;26.77;;;4.80;99.90;;;;;;5007187;28;20049;-77
2023/12/16 09:16:57;;;;;;;50.83;31.20;;;4.80;99.90;;;;;;5012692;28;20069;-79
2023/12/16 09:19:27;;;;;;;43.72;25.98;;;4.80;99.90;;;;;;5014504;28;20035;-80
2023/12/16 09:21:54;;;;;;;49.22;28.27;;;4.80;99.90;;;;;;5012536;28;20100;-79
2023/12/16 09:24:22;;;;;;;44.17;28.42;;;4.80;99.90;;;;;;5009607;28;20070;-80
2023/12/16 09:26:49;;;;;;;39.33;25.08;;;4.70;99.90;;;;;;5006492;28;20045;-81
2023/12/16 09:29:17;;;;;;;44.25;28.00;;;4.60;44.60;;;;;;5009848;28;20042;-80
2023/12/16 09:31:44;;;;;;;41.90;23.60;;;4.60;77.90;;;;;;5020118;23;20078;-77
2023/12/16 09:34:12;;;;;;;61.15;36.78;;;4.70;70.00;;;;;;5006077;28;20058;-75
2023/12/16 09:36:41;;;;;;;81.05;46.85;;;4.70;7.90;;;;;;4987053;28;20050;-76
2023/12/16 09:39:10;;;;;;;47.50;28.60;;;4.80;99.90;;;;;;5004873;28;20072;-74
2023/12/16 09:41:44;;;;;;;44.92;28.38;;;4.90;99.60;;;;;;5008698;28;20070;-76
2023/12/16 09:44:15;;;;;;;47.80;29.65;;;4.90;1.00;;;;;;5000853;28;20488;-77
2023/12/16 09:46:45;;;;;;;57.60;35.47;;;5.00;1.00;;;;;;5020592;28;20058;-77
2023/12/16 09:49:14;;;;;;;56.80;34.72;;;5.10;1.00;;;;;;5009616;28;20045;-75
2023/12/16 09:51:46;;;;;;;44.45;29.98;;;5.30;1.00;;;;;;4992754;28;20066;-77
2023/12/16 09:54:51;;;;;;;35.17;23.25;;;5.50;1.00;;;;;;4991164;28;20043;-80
2023/12/16 09:57:22;;;;;;;35.03;22.08;;;5.70;1.00;;;;;;4965642;28;20046;-77
2023/12/16 09:59:52;;;;;;;35.25;23.75;;;5.90;99.90;;;;;;4987385;28;20062;-76
2023/12/16 10:02:27;;;;;;;40.65;25.98;;;5.90;99.90;;;;;;4989389;28;20053;-76
2023/12/16 10:04:57;;;;;;;43.17;27.88;;;5.90;99.90;;;;;;5004958;28;20042;-79
2023/12/16 10:07:27;;;;;;;32.58;22.58;;;5.90;99.90;;;;;;4991205;28;20450;-79
2023/12/16 10:09:55;;;;;;;35.05;23.13;;;5.80;99.90;;;;;;5012937;28;20042;-76
2023/12/16 10:12:26;;;;;;;36.95;23.90;;;5.80;99.90;;;;;;4988172;28;20490;-77
2023/12/16 10:14:54;;;;;;;35.63;22.30;;;5.90;99.90;;;;;;4989109;28;20053;-76
2023/12/16 10:17:22;;;;;;;35.80;24.50;;;5.90;99.90;;;;;;4985340;28;20517;-78
2023/12/16 10:19:49;;;;;;;35.58;23.13;;;5.90;99.90;;;;;;5006854;28;20102;-80
2023/12/16 10:22:20;;;;;;;31.50;19.02;;;6.00;99.90;;;;;;4984932;28;20120;-78
2023/12/16 10:25:06;;;;;;;35.35;22.20;;;6.00;99.90;;;;;;4985268;28;20525;-80
2023/12/16 10:27:33;;;;;;;;;;;6.10;99.90;;;;;;4994801;28;20060;-79
2023/12/16 10:30:01;;;;;;;32.88;20.13;;;6.20;99.90;;;;;;4984625;28;19975;-79
2023/12/16 10:32:34;;;;;;;34.25;21.08;;;6.30;99.90;;;;;;4998808;28;20057;-80
2023/12/16 10:35:17;;;;;;;31.30;18.67;;;6.30;99.90;;;;;;4988288;28;20046;-78
2023/12/16 10:37:54;;;;;;;30.42;16.75;;;6.30;99.90;;;;;;5003273;28;20066;-80
2023/12/16 10:40:23;;;;;;;27.80;16.98;;;6.20;99.90;;;;;;4986375;28;20049;-78
2023/12/16 10:43:02;;;;;;;27.17;16.50;;;6.40;99.90;;;;;;4989976;28;20489;-79
2023/12/16 10:45:31;;;;;;;27.23;17.23;;;6.50;99.90;;;;;;4989117;28;20052;-78
2023/12/16 10:48:02;;;;;;;30.60;18.45;;;6.60;99.90;;;;;;4989156;28;20050;-79
2023/12/16 10:50:33;;;;;;;33.17;17.80;;;6.70;99.90;;;;;;4989203;28;20657;-76
2023/12/16 10:53:04;;;;;;;40.55;20.70;;;6.70;99.90;;;;;;5009314;28;20057;-81
2023/12/16 10:55:41;;;;;;;34.78;21.65;;;6.70;99.90;;;;;;4993423;28;20046;-79
2023/12/16 10:58:18;;;;;;;31.27;18.27;;;6.60;99.90;;;;;;4996041;28;20045;-74
2023/12/16 11:00:52;;;;;;;29.40;18.83;;;6.60;99.90;;;;;;4986252;28;20050;-78
2023/12/16 11:03:25;;;;;;;32.85;20.02;;;6.50;99.90;;;;;;4990123;28;20068;-80
2023/12/16 11:06:16;;;;;;;28.40;17.23;;;6.40;99.90;;;;;;4992841;28;20512;-79
2023/12/16 11:08:47;;;;;;;28.20;17.00;;;6.40;99.90;;;;;;4990472;28;20648;-78
2023/12/16 11:11:20;;;;;;;20.83;12.73;;;6.40;99.90;;;;;;4993988;28;20120;-77
2023/12/16 11:13:52;;;;;;;24.00;13.77;;;6.10;99.90;;;;;;5006354;28;20077;-79
2023/12/16 11:16:42;;;;;;;18.17;11.63;;;5.70;99.90;;;;;;4988271;28;20490;-78
2023/12/16 11:20:01;;;;;;;14.15;8.52;;;5.70;99.90;;;;;;5001414;28;20046;-79
2023/12/16 11:22:49;;;;;;;14.70;8.40;;;5.80;99.90;;;;;;4991010;28;20509;-79
2023/12/16 11:25:26;;;;;;;20.58;10.75;;;5.90;90.90;;;;;;4980794;28;20050;-78
2023/12/16 11:27:58;;;;;;;17.08;10.80;;;5.90;74.50;;;;;;4987903;28;20057;-80
2023/12/16 11:30:29;;;;;;;16.17;10.82;;;5.90;92.20;;;;;;5003517;28;20045;-79
2023/12/16 11:32:59;;;;;;;19.63;11.38;;;6.10;99.90;;;;;;5004231;28;20056;-77
2023/12/16 11:35:47;;;;;;;19.98;12.30;;;6.20;99.90;;;;;;4996659;28;20053;-77
2023/12/16 11:38:42;;;;;;;24.98;13.43;;;6.40;98.50;;;;;;4989015;28;20041;-76
2023/12/16 11:41:28;;;;;;;20.23;12.50;;;6.40;82.60;;;;;;4984333;28;20133;-78
2023/12/16 11:44:15;;;;;;;17.23;11.65;;;6.40;82.90;;;;;;4995657;28;20042;-78
2023/12/16 11:46:43;;;;;;;;;;;6.30;46.70;;;;;;4986452;28;20049;-75
2023/12/16 11:49:13;;;;;;;18.90;12.30;;;6.30;67.40;;;;;;5004861;28;19921;-75
2023/12/16 11:51:40;;;;;;;15.10;11.07;;;6.40;48.50;;;;;;4989442;28;20050;-75
2023/12/16 11:54:09;;;;;;;14.07;9.95;;;6.50;43.90;;;;;;5003258;28;20042;-74
2023/12/16 11:56:37;;;;;;;15.02;10.15;;;6.50;12.50;;;;;;4985442;28;20514;-76
2023/12/16 11:59:07;;;;;;;18.10;9.73;;;6.30;5.70;;;;;;4990679;28;20132;-76
2023/12/16 12:01:35;;;;;;;16.75;10.80;;;6.30;1.00;;;;;;4987791;28;20042;-76
2023/12/16 12:04:04;;;;;;;15.48;10.70;;;6.40;1.00;;;;;;5003540;28;20038;-75
2023/12/16 12:06:32;;;;;;;12.20;8.82;;;6.40;1.00;;;;;;5004637;28;20046;-76
2023/12/16 12:09:00;;;;;;;18.50;11.13;;;6.40;1.00;;;;;;5002223;28;20050;-76
2023/12/16 12:11:27;;;;;;;14.98;9.63;;;6.50;1.00;;;;;;4984153;28;20046;-75
2023/12/16 12:13:56;;;;;;;15.45;10.13;;;6.60;1.00;;;;;;4986882;28;20039;-76
2023/12/16 12:16:28;;;;;;;13.38;7.60;;;6.60;1.00;;;;;;4984520;28;20497;-76
2023/12/16 12:18:56;;;;;;;11.25;7.25;;;6.60;1.00;;;;;;4997791;28;20038;-75
2023/12/16 12:21:24;;;;;;;12.57;7.63;;;6.30;1.00;;;;;;5001622;28;20046;-74
2023/12/16 12:23:51;;;;;;;12.45;7.93;;;6.40;1.00;;;;;;5002601;28;20046;-75
2023/12/16 12:26:21;;;;;;;9.55;5.88;;;6.50;1.00;;;;;;5008137;28;20045;-77
2023/12/16 12:28:59;;;;;;;10.27;6.38;;;6.00;1.00;;;;;;4987938;28;20080;-78
2023/12/16 12:31:29;;;;;;;12.93;7.00;;;5.80;1.00;;;;;;5003129;28;20066;-76
2023/12/16 12:33:56;;;;;;;15.23;8.38;;;5.90;1.00;;;;;;5010089;28;20060;-77
2023/12/16 12:36:25;;;;;;;13.70;6.80;;;5.90;1.00;;;;;;4993881;28;20052;-76
2023/12/16 12:38:56;;;;;;;12.80;7.95;;;6.00;1.00;;;;;;5000732;28;20060;-77
2023/12/16 12:41:24;;;;;;;14.32;7.93;;;6.00;1.00;;;;;;5001921;28;20054;-78
2023/12/16 12:43:53;;;;;;;13.57;7.75;;;6.00;1.00;;;;;;4986543;28;20053;-76
2023/12/16 12:46:21;;;;;;;11.77;6.13;;;5.90;1.00;;;;;;5001670;28;20042;-76
2023/12/16 12:48:55;;;;;;;11.00;6.18;;;5.80;1.00;;;;;;5003079;28;20072;-75
2023/12/16 12:51:23;;;;;;;9.95;5.45;;;6.00;1.00;;;;;;5002442;28;20112;-75
2023/12/16 12:53:58;;;;;;;8.35;5.40;;;6.10;1.00;;;;;;5005214;28;20046;-75
2023/12/16 12:56:26;;;;;;;8.73;5.15;;;6.00;1.00;;;;;;5002730;28;20055;-77